createdAt,value
2022-11-28T00:00:21.316Z,33.35
2022-11-28T00:01:21.097Z,33.84
2022-11-28T00:02:21.151Z,33.68
2022-11-28T00:03:21.063Z,33.84
2022-11-28T00:04:21.062Z,33.68
2022-11-28T00:05:21.037Z,33.84
2022-11-28T00:06:21.152Z,33.84
2022-11-28T00:07:21.046Z,33.84
2022-11-28T00:08:20.987Z,33.68
2022-11-28T00:09:20.952Z,33.84
2022-11-28T00:10:20.974Z,33.84
2022-11-28T00:11:21.407Z,33.52
2022-11-28T00:12:21.056Z,33.52
2022-11-28T00:13:20.886Z,33.52
2022-11-28T00:14:20.915Z,33.52
2022-11-28T00:15:20.892Z,33.68
2022-11-28T00:16:20.944Z,33.52
2022-11-28T00:17:20.883Z,33.84
2022-11-28T00:18:21.078Z,33.52
2022-11-28T00:19:20.820Z,33.84
2022-11-28T00:20:20.864Z,33.84
2022-11-28T00:21:20.859Z,33.84
2022-11-28T00:22:20.775Z,33.68
2022-11-28T00:23:21.002Z,33.84
2022-11-28T00:24:20.847Z,33.68
2022-11-28T00:25:20.762Z,33.84
2022-11-28T00:26:20.749Z,33.68
2022-11-28T00:27:20.721Z,33.68
2022-11-28T00:28:20.693Z,33.84
2022-11-28T00:29:20.769Z,33.52
2022-11-28T00:30:20.874Z,33.35
2022-11-28T00:31:20.810Z,34.00
2022-11-28T00:32:20.615Z,33.84
2022-11-28T00:33:20.642Z,33.52
2022-11-28T00:34:20.590Z,34.00
2022-11-28T00:35:20.687Z,33.84
2022-11-28T00:36:20.664Z,33.84
2022-11-28T00:37:20.598Z,33.84
2022-11-28T00:38:20.540Z,33.84
2022-11-28T00:39:20.545Z,33.52
2022-11-28T00:40:20.539Z,33.52
2022-11-28T00:41:20.652Z,34.32
2022-11-28T00:42:20.616Z,34.00
2022-11-28T00:43:20.503Z,33.84
2022-11-28T00:44:20.452Z,33.84
2022-11-28T00:45:20.525Z,33.84
2022-11-28T00:46:20.511Z,34.00
2022-11-28T00:47:20.650Z,33.68
2022-11-28T00:48:20.549Z,33.52
2022-11-28T00:49:20.412Z,33.68
2022-11-28T00:50:20.394Z,33.68
2022-11-28T00:51:20.528Z,33.68
2022-11-28T00:52:20.364Z,33.52
2022-11-28T00:53:20.422Z,34.00
2022-11-28T00:54:20.538Z,33.84
2022-11-28T00:55:20.339Z,33.84
2022-11-28T00:56:20.297Z,33.84
2022-11-28T00:57:20.304Z,33.84
2022-11-28T00:58:20.275Z,33.52
2022-11-28T00:59:20.317Z,33.84
2022-11-28T01:00:20.395Z,33.84
2022-11-28T01:01:20.378Z,33.68
2022-11-28T01:02:20.280Z,33.84
2022-11-28T01:03:20.219Z,34.00
2022-11-28T01:04:20.185Z,33.84
2022-11-28T01:05:20.227Z,33.52
2022-11-28T01:06:20.292Z,33.84
2022-11-28T01:07:20.213Z,33.84
2022-11-28T01:08:20.140Z,33.68
2022-11-28T01:09:20.197Z,33.84
2022-11-28T01:10:20.109Z,33.84
2022-11-28T01:11:20.541Z,33.68
2022-11-28T01:12:20.093Z,33.84
2022-11-28T01:13:20.109Z,33.84
2022-11-28T01:14:20.060Z,33.84
2022-11-28T01:15:20.044Z,34.00
2022-11-28T01:16:20.075Z,34.00
2022-11-28T01:17:20.251Z,34.16
2022-11-28T01:18:20.000Z,33.84
2022-11-28T01:19:19.994Z,34.00
2022-11-28T01:20:19.955Z,34.00
2022-11-28T01:21:19.973Z,33.35
2022-11-28T01:22:19.940Z,33.68
2022-11-28T01:23:20.199Z,33.35
2022-11-28T01:24:19.899Z,33.52
2022-11-28T01:25:20.155Z,33.84
2022-11-28T01:26:19.927Z,33.52
2022-11-28T01:27:19.930Z,33.84
2022-11-28T01:28:19.840Z,33.84
2022-11-28T01:29:19.977Z,33.68
2022-11-28T01:30:19.879Z,33.84
2022-11-28T01:31:19.901Z,34.00
2022-11-28T01:32:19.798Z,33.84
2022-11-28T01:33:19.813Z,34.64
2022-11-28T01:34:19.767Z,33.84
2022-11-28T01:35:20.337Z,33.84
2022-11-28T01:36:19.738Z,34.16
2022-11-28T01:37:19.743Z,33.52
2022-11-28T01:38:19.721Z,33.84
2022-11-28T01:39:19.719Z,33.84
2022-11-28T01:40:19.671Z,33.84
2022-11-28T01:41:19.868Z,33.84
2022-11-28T01:42:19.665Z,34.48
2022-11-28T01:43:19.674Z,33.52
2022-11-28T01:44:19.631Z,34.00
2022-11-28T01:45:19.663Z,33.84
2022-11-28T01:46:19.645Z,33.84
2022-11-28T01:47:19.893Z,34.00
2022-11-28T01:48:19.567Z,33.68
2022-11-28T01:49:19.582Z,33.84
2022-11-28T01:50:19.543Z,33.84
2022-11-28T01:51:19.606Z,33.84
2022-11-28T01:52:19.505Z,33.84
2022-11-28T01:53:20.259Z,33.84
2022-11-28T01:54:19.486Z,33.84
2022-11-28T01:55:19.514Z,33.84
2022-11-28T01:56:19.491Z,34.00
2022-11-28T01:57:19.472Z,33.84
2022-11-28T01:58:19.430Z,33.84
2022-11-28T01:59:19.619Z,33.84
2022-11-28T02:00:19.471Z,33.84
2022-11-28T02:01:19.827Z,33.84
2022-11-28T02:02:19.430Z,33.84
2022-11-28T02:03:19.382Z,33.84
2022-11-28T02:04:19.350Z,33.84
2022-11-28T02:05:19.528Z,34.00
2022-11-28T02:06:19.305Z,33.84
2022-11-28T02:07:19.514Z,34.00
2022-11-28T02:08:19.275Z,33.84
2022-11-28T02:09:19.304Z,34.16
2022-11-28T02:10:19.267Z,33.84
2022-11-28T02:11:19.590Z,33.68
2022-11-28T02:12:19.331Z,34.00
2022-11-28T02:13:19.430Z,33.84
2022-11-28T02:14:19.300Z,33.84
2022-11-28T02:15:19.407Z,33.84
2022-11-28T02:16:19.283Z,33.84
2022-11-28T02:17:19.680Z,34.97
2022-11-28T02:18:19.176Z,34.00
2022-11-28T02:19:19.295Z,33.84
2022-11-28T02:20:19.228Z,34.16
2022-11-28T02:21:19.220Z,33.84
2022-11-28T02:22:19.079Z,33.84
2022-11-28T02:23:19.323Z,33.52
2022-11-28T02:24:19.060Z,33.52
2022-11-28T02:25:19.226Z,33.84
2022-11-28T02:26:19.105Z,33.84
2022-11-28T02:27:19.847Z,33.84
2022-11-28T02:28:19.004Z,33.84
2022-11-28T02:29:19.412Z,33.84
2022-11-28T02:30:18.972Z,34.16
2022-11-28T02:31:19.018Z,33.84
2022-11-28T02:32:18.945Z,34.00
2022-11-28T02:33:19.184Z,33.84
2022-11-28T02:34:18.910Z,33.84
2022-11-28T02:35:19.234Z,33.84
2022-11-28T02:36:18.940Z,33.84
2022-11-28T02:37:18.915Z,33.84
2022-11-28T02:38:18.870Z,35.29
2022-11-28T02:39:18.903Z,33.84
2022-11-28T02:40:18.827Z,33.68
2022-11-28T02:41:19.627Z,33.84
2022-11-28T02:42:18.810Z,33.84
2022-11-28T02:43:19.038Z,33.84
2022-11-28T02:44:18.780Z,34.00
2022-11-28T02:45:18.797Z,33.84
2022-11-28T02:46:18.805Z,33.84
2022-11-28T02:47:18.891Z,33.84
2022-11-28T02:48:18.738Z,33.84
2022-11-28T02:49:18.890Z,33.84
2022-11-28T02:50:18.930Z,33.84
2022-11-28T02:51:18.719Z,33.84
2022-11-28T02:52:18.664Z,33.84
2022-11-28T02:53:19.033Z,34.00
2022-11-28T02:54:18.643Z,34.00
2022-11-28T02:55:18.685Z,33.84
2022-11-28T02:56:18.659Z,33.84
2022-11-28T02:57:18.693Z,33.84
2022-11-28T02:58:18.598Z,33.84
2022-11-28T02:59:18.915Z,33.84
2022-11-28T03:00:18.578Z,33.84
2022-11-28T03:01:18.641Z,33.84
2022-11-28T03:02:18.595Z,34.80
2022-11-28T03:03:18.576Z,34.00
2022-11-28T03:04:18.504Z,33.68
2022-11-28T03:05:18.694Z,34.00
2022-11-28T03:06:18.490Z,34.16
2022-11-28T03:07:18.603Z,33.84
2022-11-28T03:08:18.449Z,34.32
2022-11-28T03:09:18.509Z,34.00
2022-11-28T03:10:18.419Z,33.84
2022-11-28T03:11:18.724Z,34.00
2022-11-28T03:12:18.422Z,33.84
2022-11-28T03:13:18.448Z,33.84
2022-11-28T03:14:18.378Z,33.84
2022-11-28T03:15:18.406Z,34.16
2022-11-28T03:16:18.366Z,34.16
2022-11-28T03:17:18.591Z,34.16
2022-11-28T03:18:18.397Z,33.84
2022-11-28T03:19:18.518Z,33.84
2022-11-28T03:20:18.282Z,33.84
2022-11-28T03:21:18.351Z,33.84
2022-11-28T03:22:18.241Z,33.84
2022-11-28T03:23:18.291Z,33.84
2022-11-28T03:24:18.232Z,33.84
2022-11-28T03:25:18.536Z,34.00
2022-11-28T03:26:18.214Z,33.84
2022-11-28T03:27:18.232Z,33.84
2022-11-28T03:28:18.160Z,33.68
2022-11-28T03:29:18.357Z,34.00
2022-11-28T03:30:18.146Z,34.16
2022-11-28T03:31:18.250Z,33.84
2022-11-28T03:32:18.121Z,33.84
2022-11-28T03:33:18.127Z,33.68
2022-11-28T03:34:18.068Z,34.32
2022-11-28T03:35:18.143Z,34.48
2022-11-28T03:36:18.040Z,33.68
2022-11-28T03:37:18.240Z,34.00
2022-11-28T03:38:18.020Z,33.84
2022-11-28T03:39:18.175Z,33.52
2022-11-28T03:40:18.022Z,33.84
2022-11-28T03:41:18.046Z,33.84
2022-11-28T03:42:17.955Z,33.84
2022-11-28T03:43:18.195Z,33.84
2022-11-28T03:44:17.932Z,33.84
2022-11-28T03:45:18.005Z,33.84
2022-11-28T03:46:17.975Z,33.84
2022-11-28T03:47:17.962Z,33.84
2022-11-28T03:48:17.884Z,33.84
2022-11-28T03:49:18.299Z,34.16
2022-11-28T03:50:17.853Z,34.32
2022-11-28T03:51:17.872Z,34.00
2022-11-28T03:52:17.838Z,34.16
2022-11-28T03:53:17.906Z,33.84
2022-11-28T03:54:17.804Z,33.68
2022-11-28T03:55:18.004Z,33.84
2022-11-28T03:56:17.833Z,34.00
2022-11-28T03:57:17.886Z,33.84
2022-11-28T03:58:17.731Z,33.84
2022-11-28T03:59:17.931Z,33.84
2022-11-28T04:00:17.753Z,34.16
2022-11-28T04:01:18.011Z,33.84
2022-11-28T04:02:17.673Z,33.84
2022-11-28T04:03:17.994Z,33.84
2022-11-28T04:04:17.651Z,34.00
2022-11-28T04:05:17.738Z,34.00
2022-11-28T04:06:17.623Z,33.84
2022-11-28T04:07:17.850Z,34.00
2022-11-28T04:08:17.645Z,33.84
2022-11-28T04:09:17.730Z,33.84
2022-11-28T04:10:17.628Z,33.84
2022-11-28T04:11:17.806Z,33.84
2022-11-28T04:12:17.547Z,34.16
2022-11-28T04:13:17.717Z,33.84
2022-11-28T04:14:17.526Z,34.32
2022-11-28T04:15:17.723Z,34.00
2022-11-28T04:16:17.905Z,34.00
2022-11-28T04:17:17.876Z,34.16
2022-11-28T04:18:17.475Z,33.84
2022-11-28T04:19:17.834Z,34.16
2022-11-28T04:20:17.453Z,34.16
2022-11-28T04:21:17.766Z,33.68
2022-11-28T04:22:18.416Z,33.84
2022-11-28T04:23:17.470Z,33.84
2022-11-28T04:24:17.392Z,33.84
2022-11-28T04:25:17.677Z,33.84
2022-11-28T04:26:17.412Z,33.68
2022-11-28T04:27:17.401Z,33.84
2022-11-28T04:28:17.337Z,33.84
2022-11-28T04:29:17.405Z,33.84
2022-11-28T04:30:17.362Z,33.84
2022-11-28T04:31:17.568Z,33.84
2022-11-28T04:32:17.337Z,33.68
2022-11-28T04:33:17.319Z,33.84
2022-11-28T04:34:17.323Z,33.84
2022-11-28T04:35:17.426Z,33.84
2022-11-28T04:36:17.320Z,34.97
2022-11-28T04:37:17.458Z,33.68
2022-11-28T04:38:17.271Z,34.32
2022-11-28T04:39:17.277Z,34.00
2022-11-28T04:40:17.349Z,33.84
2022-11-28T04:41:17.517Z,33.84
2022-11-28T04:42:17.177Z,33.84
2022-11-28T04:43:17.339Z,33.84
2022-11-28T04:44:17.185Z,33.84
2022-11-28T04:45:17.593Z,33.84
2022-11-28T04:46:17.156Z,33.84
2022-11-28T04:47:17.319Z,33.84
2022-11-28T04:48:17.068Z,33.84
2022-11-28T04:49:17.134Z,33.84
2022-11-28T04:50:17.090Z,33.84
2022-11-28T04:51:17.023Z,34.97
2022-11-28T04:52:17.145Z,33.84
2022-11-28T04:53:17.026Z,34.16
2022-11-28T04:54:16.986Z,33.84
2022-11-28T04:55:17.168Z,33.84
2022-11-28T04:56:16.966Z,33.84
2022-11-28T04:57:17.148Z,34.00
2022-11-28T04:58:16.914Z,33.84
2022-11-28T04:59:16.973Z,33.84
2022-11-28T05:00:16.967Z,33.84
2022-11-28T05:01:17.396Z,33.68
2022-11-28T05:02:16.947Z,33.84
2022-11-28T05:03:16.953Z,34.00
2022-11-28T05:04:16.862Z,33.84
2022-11-28T05:05:16.872Z,33.84
2022-11-28T05:06:16.885Z,34.16
2022-11-28T05:07:17.032Z,34.32
2022-11-28T05:08:16.787Z,33.84
2022-11-28T05:09:16.770Z,34.00
2022-11-28T05:10:16.817Z,35.45
2022-11-28T05:11:16.979Z,33.84
2022-11-28T05:12:16.719Z,33.84
2022-11-28T05:13:16.943Z,34.00
2022-11-28T05:14:16.738Z,34.00
2022-11-28T05:15:16.730Z,33.84
2022-11-28T05:16:16.763Z,34.00
2022-11-28T05:17:16.646Z,33.84
2022-11-28T05:18:16.631Z,34.00
2022-11-28T05:19:16.708Z,33.84
2022-11-28T05:20:16.677Z,33.84
2022-11-28T05:21:16.691Z,35.61
2022-11-28T05:22:16.605Z,34.00
2022-11-28T05:23:16.662Z,34.00
2022-11-28T05:24:16.571Z,34.00
2022-11-28T05:25:16.804Z,37.71
2022-11-28T05:26:16.651Z,34.64
2022-11-28T05:27:16.675Z,34.32
2022-11-28T05:28:16.537Z,33.84
2022-11-28T05:29:16.506Z,33.84
2022-11-28T05:30:16.464Z,34.16
2022-11-28T05:31:16.747Z,33.84
2022-11-28T05:32:16.445Z,34.48
2022-11-28T05:33:16.442Z,34.00
2022-11-28T05:34:16.425Z,34.16
2022-11-28T05:35:16.753Z,35.93
2022-11-28T05:36:16.387Z,33.84
2022-11-28T05:37:16.705Z,33.84
2022-11-28T05:38:16.369Z,33.84
2022-11-28T05:39:16.362Z,34.00
2022-11-28T05:40:16.346Z,33.84
2022-11-28T05:41:16.567Z,33.84
2022-11-28T05:42:16.302Z,33.84
2022-11-28T05:43:16.372Z,33.84
2022-11-28T05:44:16.269Z,34.16
2022-11-28T05:45:16.401Z,34.48
2022-11-28T05:46:16.320Z,34.00
2022-11-28T05:47:16.369Z,34.00
2022-11-28T05:48:16.228Z,33.84
2022-11-28T05:49:16.419Z,34.16
2022-11-28T05:50:16.196Z,34.48
2022-11-28T05:51:16.482Z,33.84
2022-11-28T05:52:16.164Z,34.00
2022-11-28T05:53:16.222Z,33.84
2022-11-28T05:54:16.135Z,33.19
2022-11-28T05:55:16.410Z,34.00
2022-11-28T05:56:16.120Z,34.32
2022-11-28T05:57:16.207Z,34.00
2022-11-28T05:58:16.094Z,33.84
2022-11-28T05:59:16.055Z,34.00
2022-11-28T06:00:16.070Z,34.32
2022-11-28T06:01:16.355Z,34.00
2022-11-28T06:02:16.062Z,33.84
2022-11-28T06:03:15.989Z,33.68
2022-11-28T06:04:16.053Z,34.32
2022-11-28T06:05:40.898Z,35.61
2022-11-28T06:06:17.850Z,35.13
2022-11-28T06:07:16.017Z,34.00
2022-11-28T06:08:15.975Z,33.84
2022-11-28T06:09:15.983Z,33.84
2022-11-28T06:10:15.905Z,34.16
2022-11-28T06:11:16.196Z,33.84
2022-11-28T06:12:16.000Z,34.16
2022-11-28T06:13:16.072Z,33.84
2022-11-28T06:14:15.857Z,34.16
2022-11-28T06:15:15.809Z,35.45
2022-11-28T06:16:15.884Z,43.18
2022-11-28T06:17:15.938Z,34.32
2022-11-28T06:18:16.061Z,40.12
2022-11-28T06:19:15.969Z,35.61
2022-11-28T06:20:15.776Z,33.84
2022-11-28T06:21:15.729Z,34.00
2022-11-28T06:22:15.750Z,33.84
2022-11-28T06:23:15.765Z,34.16
2022-11-28T06:24:16.154Z,34.00
2022-11-28T06:25:15.810Z,33.84
2022-11-28T06:26:15.755Z,44.63
2022-11-28T06:27:16.774Z,34.97
2022-11-28T06:28:15.640Z,34.48
2022-11-28T06:29:15.657Z,37.87
2022-11-28T06:30:16.033Z,34.00
2022-11-28T06:31:15.970Z,37.54
2022-11-28T06:32:21.687Z,35.93
2022-11-28T06:33:16.748Z,33.84
2022-11-28T06:34:15.583Z,35.13
2022-11-28T06:35:15.738Z,34.16
2022-11-28T06:36:15.548Z,34.32
2022-11-28T06:37:15.572Z,35.61
2022-11-28T06:38:15.504Z,35.29
2022-11-28T06:39:15.605Z,34.80
2022-11-28T06:40:15.497Z,42.70
2022-11-28T06:41:15.928Z,34.80
2022-11-28T06:42:15.492Z,37.22
2022-11-28T06:43:15.571Z,36.42
2022-11-28T06:44:15.453Z,36.09
2022-11-28T06:45:15.527Z,37.38
2022-11-28T06:46:16.449Z,36.09
2022-11-28T06:47:15.693Z,34.16
2022-11-28T06:48:15.420Z,33.84
2022-11-28T06:49:15.486Z,33.84
2022-11-28T06:50:15.343Z,34.16
2022-11-28T06:51:15.457Z,33.84
2022-11-28T06:52:15.321Z,34.00
2022-11-28T06:53:15.472Z,33.68
2022-11-28T06:54:15.310Z,33.84
2022-11-28T06:55:15.432Z,34.00
2022-11-28T06:56:15.405Z,33.84
2022-11-28T06:57:15.263Z,34.16
2022-11-28T06:58:15.233Z,33.84
2022-11-28T06:59:15.477Z,33.84
2022-11-28T07:00:15.280Z,33.84
2022-11-28T07:01:15.338Z,33.84
2022-11-28T07:02:15.198Z,33.84
2022-11-28T07:03:15.210Z,34.00
2022-11-28T07:04:15.145Z,33.84
2022-11-28T07:05:15.630Z,33.84
2022-11-28T07:06:15.135Z,33.68
2022-11-28T07:07:16.802Z,34.00
2022-11-28T07:08:15.179Z,34.32
2022-11-28T07:09:15.052Z,36.09
2022-11-28T07:10:15.066Z,34.00
2022-11-28T07:11:15.536Z,34.00
2022-11-28T07:12:15.057Z,33.84
2022-11-28T07:13:15.159Z,33.84
2022-11-28T07:14:15.001Z,33.68
2022-11-28T07:15:15.115Z,33.84
2022-11-28T07:16:15.094Z,33.84
2022-11-28T07:17:15.225Z,33.68
2022-11-28T07:18:14.961Z,33.84
2022-11-28T07:19:14.992Z,33.84
2022-11-28T07:20:14.918Z,34.00
2022-11-28T07:21:15.034Z,34.16
2022-11-28T07:22:14.901Z,33.84
2022-11-28T07:23:15.001Z,33.84
2022-11-28T07:24:14.867Z,33.84
2022-11-28T07:25:15.944Z,33.84
2022-11-28T07:26:14.992Z,33.84
2022-11-28T07:27:14.923Z,34.32
2022-11-28T07:28:14.819Z,33.84
2022-11-28T07:29:15.068Z,33.84
2022-11-28T07:30:14.783Z,34.16
2022-11-28T07:31:15.095Z,33.84
2022-11-28T07:32:14.845Z,33.84
2022-11-28T07:33:14.850Z,34.32
2022-11-28T07:34:14.752Z,33.68
2022-11-28T07:35:14.910Z,33.84
2022-11-28T07:36:14.960Z,33.84
2022-11-28T07:37:14.878Z,35.77
2022-11-28T07:38:14.667Z,34.16
2022-11-28T07:39:14.724Z,38.03
2022-11-28T07:40:14.831Z,34.00
2022-11-28T07:41:14.935Z,36.09
2022-11-28T07:42:14.712Z,37.54
2022-11-28T07:43:14.723Z,36.58
2022-11-28T07:44:14.592Z,35.61
2022-11-28T07:45:14.634Z,36.74
2022-11-28T07:46:14.664Z,37.87
2022-11-28T07:47:15.908Z,37.22
2022-11-28T07:48:14.585Z,37.06
2022-11-28T07:49:14.539Z,36.74
2022-11-28T07:50:14.569Z,37.38
2022-11-28T07:51:14.571Z,37.06
2022-11-28T07:52:14.483Z,38.19
2022-11-28T07:53:14.741Z,40.61
2022-11-28T07:54:14.524Z,36.90
2022-11-28T07:55:14.453Z,35.13
2022-11-28T07:56:14.647Z,35.29
2022-11-28T07:57:14.841Z,37.38
2022-11-28T07:58:14.461Z,38.99
2022-11-28T07:59:14.551Z,37.71
2022-11-28T08:00:14.413Z,36.58
2022-11-28T08:01:14.454Z,37.71
2022-11-28T08:02:14.442Z,36.58
2022-11-28T08:03:14.473Z,39.32
2022-11-28T08:04:14.347Z,33.84
2022-11-28T08:05:14.719Z,38.51
2022-11-28T08:06:14.269Z,39.80
2022-11-28T08:07:14.411Z,37.22
2022-11-28T08:08:14.246Z,36.90
2022-11-28T08:09:15.341Z,38.35
2022-11-28T08:10:14.231Z,38.83
2022-11-28T08:11:14.838Z,36.09
2022-11-28T08:12:14.210Z,40.28
2022-11-28T08:13:14.242Z,44.79
2022-11-28T08:14:14.200Z,38.99
2022-11-28T08:15:14.261Z,41.57
2022-11-28T08:16:14.224Z,37.38
2022-11-28T08:17:14.333Z,39.48
2022-11-28T08:18:14.113Z,38.51
2022-11-28T08:19:14.207Z,39.16
2022-11-28T08:20:14.177Z,42.86
2022-11-28T08:21:14.160Z,38.35
2022-11-28T08:22:14.055Z,38.67
2022-11-28T08:23:14.244Z,40.77
2022-11-28T08:24:14.052Z,35.93
2022-11-28T08:25:14.953Z,39.32
2022-11-28T08:26:14.023Z,34.64
2022-11-28T08:27:14.165Z,38.35
2022-11-28T08:28:13.972Z,38.67
2022-11-28T08:29:14.227Z,38.51
2022-11-28T08:30:13.956Z,42.38
2022-11-28T08:31:14.128Z,42.70
2022-11-28T08:32:13.960Z,34.97
2022-11-28T08:33:13.958Z,39.16
2022-11-28T08:34:14.329Z,64.94
2022-11-28T08:35:14.180Z,58.97
2022-11-28T08:36:13.866Z,49.79
2022-11-28T08:37:14.045Z,52.05
2022-11-28T08:38:13.846Z,58.65
2022-11-28T08:39:29.526Z,48.82
2022-11-28T08:40:14.996Z,52.85
2022-11-28T08:41:14.549Z,40.61
2022-11-28T08:42:13.791Z,40.93
2022-11-28T08:43:14.755Z,59.14
2022-11-28T08:44:14.019Z,35.93
2022-11-28T08:45:13.857Z,60.10
2022-11-28T08:46:14.046Z,54.30
2022-11-28T08:47:14.248Z,52.53
2022-11-28T08:48:13.747Z,41.41
2022-11-28T08:49:13.741Z,36.25
2022-11-28T08:50:13.680Z,36.25
2022-11-28T08:51:19.803Z,37.71
2022-11-28T08:52:13.905Z,56.88
2022-11-28T08:53:18.648Z,44.31
2022-11-28T08:54:13.611Z,48.02
2022-11-28T08:55:13.754Z,41.57
2022-11-28T08:56:13.657Z,39.48
2022-11-28T08:57:14.276Z,48.34
2022-11-28T08:58:13.598Z,46.41
2022-11-28T08:59:13.680Z,38.35
2022-11-28T09:00:13.531Z,40.77
2022-11-28T09:01:13.762Z,36.58
2022-11-28T09:02:13.675Z,34.32
2022-11-28T09:03:13.894Z,34.64
2022-11-28T09:04:13.536Z,37.71
2022-11-28T09:05:13.692Z,45.92
2022-11-28T09:06:13.523Z,50.92
2022-11-28T09:07:13.631Z,53.33
2022-11-28T09:08:13.462Z,34.16
2022-11-28T09:09:13.892Z,34.80
2022-11-28T09:10:13.408Z,35.77
2022-11-28T09:11:14.390Z,36.58
2022-11-28T09:12:13.491Z,42.22
2022-11-28T09:13:13.641Z,37.87
2022-11-28T09:14:13.432Z,45.76
2022-11-28T09:15:14.364Z,37.38
2022-11-28T09:16:13.340Z,34.80
2022-11-28T09:17:13.541Z,38.35
2022-11-28T09:18:13.232Z,42.86
2022-11-28T09:19:13.464Z,55.27
2022-11-28T09:20:13.214Z,54.62
2022-11-28T09:21:13.721Z,37.38
2022-11-28T09:22:13.230Z,56.88
2022-11-28T09:23:14.143Z,52.53
2022-11-28T09:24:13.161Z,52.69
2022-11-28T09:25:13.288Z,53.33
2022-11-28T09:26:13.192Z,63.33
2022-11-28T09:27:13.354Z,36.90
2022-11-28T09:28:13.123Z,46.08
2022-11-28T09:29:13.852Z,35.13
2022-11-28T09:30:13.072Z,60.91
2022-11-28T09:31:13.402Z,57.85
2022-11-28T09:32:13.084Z,57.20
2022-11-28T09:33:13.772Z,56.56
2022-11-28T09:34:13.174Z,57.20
2022-11-28T09:35:13.143Z,59.94
2022-11-28T09:36:13.006Z,63.16
2022-11-28T09:37:13.092Z,68.64
2022-11-28T09:38:12.952Z,43.99
2022-11-28T09:39:13.836Z,48.66
2022-11-28T09:40:14.015Z,44.96
2022-11-28T09:41:13.637Z,43.67
2022-11-28T09:42:12.912Z,36.42
2022-11-28T09:43:13.026Z,50.92
2022-11-28T09:44:12.853Z,36.90
2022-11-28T09:45:13.121Z,37.38
2022-11-28T09:46:12.946Z,35.29
2022-11-28T09:47:13.024Z,34.48
2022-11-28T09:48:12.868Z,40.93
2022-11-28T09:49:12.931Z,44.63
2022-11-28T09:50:12.800Z,35.45
2022-11-28T09:51:13.014Z,35.93
2022-11-28T09:52:12.874Z,34.80
2022-11-28T09:53:12.863Z,42.38
2022-11-28T09:54:12.720Z,35.13
2022-11-28T09:55:12.838Z,38.67
2022-11-28T09:56:12.775Z,34.64
2022-11-28T09:57:12.900Z,44.47
2022-11-28T09:58:12.702Z,45.28
2022-11-28T09:59:12.816Z,35.93
2022-11-28T10:00:12.674Z,34.80
2022-11-28T10:01:13.041Z,35.13
2022-11-28T10:02:12.619Z,35.45
2022-11-28T10:03:13.391Z,35.13
2022-11-28T10:04:12.738Z,36.09
2022-11-28T10:05:12.774Z,36.90
2022-11-28T10:06:12.618Z,35.13
2022-11-28T10:07:12.733Z,35.93
2022-11-28T10:08:12.550Z,41.41
2022-11-28T10:09:12.924Z,63.16
2022-11-28T10:10:12.576Z,41.41
2022-11-28T10:11:13.645Z,72.67
2022-11-28T10:12:12.495Z,66.06
2022-11-28T10:13:13.275Z,34.64
2022-11-28T10:14:12.465Z,34.64
2022-11-28T10:15:12.831Z,35.93
2022-11-28T10:16:12.489Z,34.32
2022-11-28T10:17:13.246Z,41.09
2022-11-28T10:18:12.395Z,41.73
2022-11-28T10:19:25.710Z,35.45
2022-11-28T10:20:13.476Z,47.21
2022-11-28T10:21:12.671Z,49.47
2022-11-28T10:22:13.327Z,62.36
2022-11-28T10:23:12.570Z,42.38
2022-11-28T10:24:12.349Z,51.08
2022-11-28T10:25:12.747Z,49.79
2022-11-28T10:26:12.393Z,45.60
2022-11-28T10:27:12.772Z,35.13
2022-11-28T10:28:12.300Z,34.16
2022-11-28T10:29:13.717Z,34.97
2022-11-28T10:30:12.357Z,37.06
2022-11-28T10:31:13.194Z,34.64
2022-11-28T10:32:12.288Z,48.02
2022-11-28T10:33:13.162Z,35.77
2022-11-28T10:34:12.260Z,34.80
2022-11-28T10:35:12.421Z,50.92
2022-11-28T10:36:12.314Z,36.74
2022-11-28T10:37:13.020Z,34.97
2022-11-28T10:38:12.151Z,36.90
2022-11-28T10:39:12.392Z,34.32
2022-11-28T10:40:12.298Z,35.29
2022-11-28T10:41:13.039Z,36.09
2022-11-28T10:42:12.112Z,46.73
2022-11-28T10:43:12.870Z,42.70
2022-11-28T10:44:15.830Z,34.64
2022-11-28T10:45:13.805Z,36.09
2022-11-28T10:46:12.157Z,57.04
2022-11-28T10:47:12.776Z,52.37
2022-11-28T10:48:38.518Z,36.58
2022-11-28T10:49:13.473Z,47.86
2022-11-28T10:50:12.109Z,34.32
2022-11-28T10:51:12.603Z,34.16
2022-11-28T10:52:11.963Z,50.27
2022-11-28T10:53:12.260Z,48.18
2022-11-28T10:54:11.907Z,42.38
2022-11-28T10:55:12.826Z,34.16
2022-11-28T10:56:12.005Z,67.51
2022-11-28T10:57:12.745Z,58.97
2022-11-28T10:58:11.864Z,45.76
2022-11-28T10:59:12.631Z,47.86
2022-11-28T11:00:11.832Z,47.05
2022-11-28T11:01:12.725Z,63.81
2022-11-28T11:02:11.790Z,47.70
2022-11-28T11:03:13.274Z,40.28
2022-11-28T11:04:11.829Z,33.84
2022-11-28T11:05:12.760Z,34.97
2022-11-28T11:06:11.833Z,63.00
2022-11-28T11:07:16.439Z,53.33
2022-11-28T11:08:12.773Z,34.32
2022-11-28T11:09:12.821Z,35.13
2022-11-28T11:10:11.715Z,48.66
2022-11-28T11:11:12.336Z,43.67
2022-11-28T11:12:11.678Z,40.61
2022-11-28T11:13:12.619Z,48.66
2022-11-28T11:14:11.665Z,50.92
2022-11-28T11:15:12.674Z,44.47
2022-11-28T11:16:12.804Z,52.53
2022-11-28T11:17:12.526Z,41.89
2022-11-28T11:18:11.578Z,42.70
2022-11-28T11:19:11.865Z,42.06
2022-11-28T11:20:11.559Z,56.24
2022-11-28T11:21:13.727Z,64.94
2022-11-28T11:22:11.499Z,43.51
2022-11-28T11:23:11.730Z,41.73
2022-11-28T11:24:11.530Z,37.22
2022-11-28T11:25:11.723Z,34.32
2022-11-28T11:26:11.497Z,40.93
2022-11-28T11:27:11.648Z,50.27
2022-11-28T11:28:11.424Z,50.11
2022-11-28T11:29:11.979Z,42.38
2022-11-28T11:30:11.390Z,56.72
2022-11-28T11:31:14.402Z,42.38
2022-11-28T11:32:11.421Z,37.87
2022-11-28T11:33:12.587Z,36.74
2022-11-28T11:34:11.343Z,34.32
2022-11-28T11:35:12.691Z,37.22
2022-11-28T11:36:11.307Z,36.74
2022-11-28T11:37:12.563Z,42.86
2022-11-28T11:38:11.332Z,56.88
2022-11-28T11:39:11.699Z,44.96
2022-11-28T11:40:11.249Z,48.98
2022-11-28T11:41:14.044Z,42.06
2022-11-28T11:42:11.211Z,56.24
2022-11-28T11:43:12.192Z,55.43
2022-11-28T11:44:11.385Z,39.80
2022-11-28T11:45:12.383Z,45.12
2022-11-28T11:46:11.228Z,36.25
2022-11-28T11:47:11.565Z,39.32
2022-11-28T11:48:11.133Z,54.95
2022-11-28T11:49:13.086Z,40.28
2022-11-28T11:50:11.162Z,39.48
2022-11-28T11:51:12.654Z,39.16
2022-11-28T11:52:11.078Z,57.69
2022-11-28T11:53:12.019Z,36.42
2022-11-28T11:54:11.069Z,34.16
2022-11-28T11:55:11.459Z,34.32
2022-11-28T11:56:11.064Z,34.64
2022-11-28T11:58:12.032Z,34.48
2022-11-28T11:59:11.523Z,33.84
2022-11-28T12:00:11.009Z,33.84
2022-11-28T12:01:11.112Z,34.32
2022-11-28T12:02:11.015Z,34.16
2022-11-28T12:03:12.559Z,36.74
2022-11-28T12:04:37.183Z,34.80
2022-11-28T12:05:12.160Z,34.80
2022-11-28T12:06:15.123Z,34.97
2022-11-28T12:07:11.026Z,34.32
2022-11-28T12:08:10.896Z,42.70
2022-11-28T12:09:11.116Z,34.32
2022-11-28T12:10:10.827Z,35.45
2022-11-28T12:11:11.714Z,33.84
2022-11-28T12:12:10.819Z,33.84
2022-11-28T12:13:12.436Z,38.19
2022-11-28T12:14:10.815Z,34.64
2022-11-28T12:15:11.269Z,44.31
2022-11-28T12:16:10.803Z,34.97
2022-11-28T12:17:32.937Z,42.70
2022-11-28T12:18:11.778Z,49.95
2022-11-28T12:19:11.019Z,76.54
2022-11-28T12:20:10.732Z,61.71
2022-11-28T12:21:11.093Z,62.68
2022-11-28T12:22:10.682Z,59.14
2022-11-28T12:23:15.813Z,44.63
2022-11-28T12:24:11.640Z,61.71
2022-11-28T12:25:10.772Z,34.32
2022-11-28T12:26:10.644Z,34.80
2022-11-28T12:27:10.813Z,34.80
2022-11-28T12:28:10.589Z,34.97
2022-11-28T12:29:10.718Z,36.90
2022-11-28T12:30:10.559Z,35.93
2022-11-28T12:31:10.750Z,34.80
2022-11-28T12:32:10.552Z,41.09
2022-11-28T12:33:10.813Z,45.92
2022-11-28T12:34:10.494Z,36.09
2022-11-28T12:35:10.687Z,34.80
2022-11-28T12:36:10.482Z,35.29
2022-11-28T12:37:10.591Z,45.92
2022-11-28T12:38:11.706Z,44.47
2022-11-28T12:39:10.691Z,38.83
2022-11-28T12:40:10.469Z,35.29
2022-11-28T12:41:10.568Z,36.58
2022-11-28T12:42:10.389Z,36.25
2022-11-28T12:43:10.535Z,35.93
2022-11-28T12:44:10.401Z,43.51
2022-11-28T12:45:10.619Z,44.63
2022-11-28T12:46:10.385Z,38.35
2022-11-28T12:47:10.599Z,41.89
2022-11-28T12:48:10.307Z,50.43
2022-11-28T12:49:10.531Z,35.77
2022-11-28T12:50:10.417Z,34.97
2022-11-28T12:51:10.762Z,39.96
2022-11-28T12:52:10.242Z,41.73
2022-11-28T12:53:10.379Z,44.63